sensor_id;sensor_type;location;lat;lon;timestamp;P1;durP1;ratioP1;P2;durP2;ratioP2
30515;SDS011;17297;54.022;10.760;2023-04-24T00:02:08;2.50;;;2.30;;
30515;SDS011;17297;54.022;10.760;2023-04-24T00:04:36;3.63;;;2.40;;
30515;SDS011;17297;54.022;10.760;2023-04-24T00:07:05;3.45;;;2.65;;
30515;SDS011;17297;54.022;10.760;2023-04-24T00:09:31;3.38;;;2.33;;
30515;SDS011;17297;54.022;10.760;2023-04-24T00:11:57;2.63;;;2.42;;
30515;SDS011;17297;54.022;10.760;2023-04-24T00:14:22;2.53;;;2.13;;
30515;SDS011;17297;54.022;10.760;2023-04-24T00:16:48;3.55;;;2.47;;
30515;SDS011;17297;54.022;10.760;2023-04-24T00:19:13;2.35;;;2.15;;
30515;SDS011;17297;54.022;10.760;2023-04-24T00:21:39;2.65;;;2.38;;
30515;SDS011;17297;54.022;10.760;2023-04-24T00:24:05;2.28;;;2.08;;
30515;SDS011;17297;54.022;10.760;2023-04-24T00:26:31;2.70;;;2.47;;
30515;SDS011;17297;54.022;10.760;2023-04-24T00:28:56;2.30;;;2.10;;
30515;SDS011;17297;54.022;10.760;2023-04-24T00:31:22;2.88;;;2.00;;
30515;SDS011;17297;54.022;10.760;2023-04-24T00:33:47;2.45;;;1.95;;
30515;SDS011;17297;54.022;10.760;2023-04-24T00:36:12;2.10;;;1.90;;
30515;SDS011;17297;54.022;10.760;2023-04-24T00:38:38;2.70;;;2.50;;
30515;SDS011;17297;54.022;10.760;2023-04-24T00:41:03;2.78;;;2.40;;
30515;SDS011;17297;54.022;10.760;2023-04-24T00:43:29;2.20;;;2.05;;
30515;SDS011;17297;54.022;10.760;2023-04-24T00:45:54;2.22;;;1.70;;
30515;SDS011;17297;54.022;10.760;2023-04-24T00:48:20;2.45;;;1.90;;
30515;SDS011;17297;54.022;10.760;2023-04-24T00:50:46;2.33;;;2.10;;
30515;SDS011;17297;54.022;10.760;2023-04-24T00:53:13;2.20;;;2.00;;
30515;SDS011;17297;54.022;10.760;2023-04-24T00:55:38;2.50;;;2.30;;
30515;SDS011;17297;54.022;10.760;2023-04-24T00:58:04;2.80;;;2.28;;
30515;SDS011;17297;54.022;10.760;2023-04-24T01:00:29;2.42;;;2.10;;
30515;SDS011;17297;54.022;10.760;2023-04-24T01:02:56;2.15;;;1.95;;
30515;SDS011;17297;54.022;10.760;2023-04-24T01:05:22;1.88;;;1.73;;
30515;SDS011;17297;54.022;10.760;2023-04-24T01:07:48;3.70;;;2.47;;
30515;SDS011;17297;54.022;10.760;2023-04-24T01:10:14;3.00;;;2.35;;
30515;SDS011;17297;54.022;10.760;2023-04-24T01:12:40;2.30;;;2.10;;
30515;SDS011;17297;54.022;10.760;2023-04-24T01:15:05;2.67;;;2.30;;
30515;SDS011;17297;54.022;10.760;2023-04-24T01:17:32;2.17;;;1.95;;
30515;SDS011;17297;54.022;10.760;2023-04-24T01:19:58;2.97;;;2.53;;
30515;SDS011;17297;54.022;10.760;2023-04-24T01:22:25;2.35;;;2.15;;
30515;SDS011;17297;54.022;10.760;2023-04-24T01:24:51;2.42;;;2.22;;
30515;SDS011;17297;54.022;10.760;2023-04-24T01:27:16;2.85;;;2.65;;
30515;SDS011;17297;54.022;10.760;2023-04-24T01:29:44;2.17;;;2.00;;
30515;SDS011;17297;54.022;10.760;2023-04-24T01:32:09;3.03;;;2.30;;
30515;SDS011;17297;54.022;10.760;2023-04-24T01:34:35;3.00;;;2.70;;
30515;SDS011;17297;54.022;10.760;2023-04-24T01:37:02;2.92;;;2.58;;
30515;SDS011;17297;54.022;10.760;2023-04-24T01:39:27;3.72;;;2.75;;
30515;SDS011;17297;54.022;10.760;2023-04-24T01:41:53;2.20;;;2.00;;
30515;SDS011;17297;54.022;10.760;2023-04-24T01:44:20;4.28;;;3.88;;
30515;SDS011;17297;54.022;10.760;2023-04-24T01:46:46;2.58;;;1.90;;
30515;SDS011;17297;54.022;10.760;2023-04-24T01:49:12;3.15;;;2.22;;
30515;SDS011;17297;54.022;10.760;2023-04-24T01:51:37;2.15;;;2.05;;
30515;SDS011;17297;54.022;10.760;2023-04-24T01:54:02;2.13;;;1.85;;
30515;SDS011;17297;54.022;10.760;2023-04-24T01:56:32;3.03;;;2.28;;
30515;SDS011;17297;54.022;10.760;2023-04-24T01:58:58;2.08;;;1.65;;
30515;SDS011;17297;54.022;10.760;2023-04-24T02:01:25;2.55;;;2.35;;
30515;SDS011;17297;54.022;10.760;2023-04-24T02:03:50;2.20;;;1.98;;
30515;SDS011;17297;54.022;10.760;2023-04-24T02:06:15;2.03;;;1.83;;
30515;SDS011;17297;54.022;10.760;2023-04-24T02:08:41;2.15;;;1.95;;
30515;SDS011;17297;54.022;10.760;2023-04-24T02:11:08;2.38;;;2.17;;
30515;SDS011;17297;54.022;10.760;2023-04-24T02:13:34;2.30;;;2.10;;
30515;SDS011;17297;54.022;10.760;2023-04-24T02:16:00;2.67;;;2.20;;
30515;SDS011;17297;54.022;10.760;2023-04-24T02:18:26;2.35;;;2.05;;
30515;SDS011;17297;54.022;10.760;2023-04-24T02:20:52;2.08;;;1.88;;
30515;SDS011;17297;54.022;10.760;2023-04-24T02:23:17;2.20;;;2.00;;
30515;SDS011;17297;54.022;10.760;2023-04-24T02:25:44;2.85;;;2.30;;
30515;SDS011;17297;54.022;10.760;2023-04-24T02:28:10;3.70;;;2.03;;
30515;SDS011;17297;54.022;10.760;2023-04-24T02:30:35;2.35;;;2.03;;
30515;SDS011;17297;54.022;10.760;2023-04-24T02:33:01;2.83;;;2.40;;
30515;SDS011;17297;54.022;10.760;2023-04-24T02:35:26;3.33;;;2.33;;
30515;SDS011;17297;54.022;10.760;2023-04-24T02:37:52;2.65;;;1.92;;
30515;SDS011;17297;54.022;10.760;2023-04-24T02:40:17;2.58;;;2.38;;
30515;SDS011;17297;54.022;10.760;2023-04-24T02:42:42;2.60;;;2.35;;
30515;SDS011;17297;54.022;10.760;2023-04-24T02:45:08;2.97;;;2.10;;
30515;SDS011;17297;54.022;10.760;2023-04-24T02:47:33;2.30;;;2.08;;
30515;SDS011;17297;54.022;10.760;2023-04-24T02:49:59;2.55;;;2.20;;
30515;SDS011;17297;54.022;10.760;2023-04-24T02:52:24;2.42;;;2.22;;
30515;SDS011;17297;54.022;10.760;2023-04-24T02:54:49;3.03;;;2.35;;
30515;SDS011;17297;54.022;10.760;2023-04-24T02:57:15;2.40;;;2.17;;
30515;SDS011;17297;54.022;10.760;2023-04-24T02:59:41;2.30;;;2.10;;
30515;SDS011;17297;54.022;10.760;2023-04-24T03:02:06;4.25;;;2.05;;
30515;SDS011;17297;54.022;10.760;2023-04-24T03:04:32;2.80;;;2.60;;
30515;SDS011;17297;54.022;10.760;2023-04-24T03:06:57;2.75;;;2.40;;
30515;SDS011;17297;54.022;10.760;2023-04-24T03:09:22;2.50;;;2.30;;
30515;SDS011;17297;54.022;10.760;2023-04-24T03:11:48;2.33;;;2.13;;
30515;SDS011;17297;54.022;10.760;2023-04-24T03:14:14;2.50;;;2.00;;
30515;SDS011;17297;54.022;10.760;2023-04-24T03:16:40;2.85;;;2.47;;
30515;SDS011;17297;54.022;10.760;2023-04-24T03:19:05;2.38;;;2.10;;
30515;SDS011;17297;54.022;10.760;2023-04-24T03:21:34;2.22;;;2.03;;
30515;SDS011;17297;54.022;10.760;2023-04-24T03:24:01;3.28;;;2.38;;
30515;SDS011;17297;54.022;10.760;2023-04-24T03:26:27;2.72;;;2.53;;
30515;SDS011;17297;54.022;10.760;2023-04-24T03:29:05;2.33;;;1.92;;
30515;SDS011;17297;54.022;10.760;2023-04-24T03:31:31;2.38;;;2.17;;
30515;SDS011;17297;54.022;10.760;2023-04-24T03:33:56;2.35;;;2.15;;
30515;SDS011;17297;54.022;10.760;2023-04-24T03:36:24;2.65;;;2.45;;
30515;SDS011;17297;54.022;10.760;2023-04-24T03:38:53;2.05;;;1.88;;
30515;SDS011;17297;54.022;10.760;2023-04-24T03:41:25;2.47;;;1.95;;
30515;SDS011;17297;54.022;10.760;2023-04-24T03:43:54;3.05;;;2.05;;
30515;SDS011;17297;54.022;10.760;2023-04-24T03:46:20;2.45;;;2.25;;
30515;SDS011;17297;54.022;10.760;2023-04-24T03:48:52;2.65;;;2.30;;
30515;SDS011;17297;54.022;10.760;2023-04-24T03:51:20;2.72;;;2.20;;
30515;SDS011;17297;54.022;10.760;2023-04-24T03:53:49;2.60;;;2.15;;
30515;SDS011;17297;54.022;10.760;2023-04-24T03:56:18;2.80;;;2.35;;
30515;SDS011;17297;54.022;10.760;2023-04-24T03:58:45;2.47;;;2.00;;
30515;SDS011;17297;54.022;10.760;2023-04-24T04:01:10;3.20;;;2.45;;
30515;SDS011;17297;54.022;10.760;2023-04-24T04:03:45;2.38;;;2.03;;
30515;SDS011;17297;54.022;10.760;2023-04-24T04:06:10;1.73;;;1.63;;
30515;SDS011;17297;54.022;10.760;2023-04-24T04:08:38;2.30;;;2.10;;
30515;SDS011;17297;54.022;10.760;2023-04-24T04:11:03;2.20;;;2.00;;
30515;SDS011;17297;54.022;10.760;2023-04-24T04:13:29;1.98;;;1.75;;
30515;SDS011;17297;54.022;10.760;2023-04-24T04:15:54;2.00;;;1.90;;
30515;SDS011;17297;54.022;10.760;2023-04-24T04:18:20;2.00;;;1.80;;
30515;SDS011;17297;54.022;10.760;2023-04-24T04:20:45;2.05;;;1.88;;
30515;SDS011;17297;54.022;10.760;2023-04-24T04:23:13;2.25;;;1.85;;
30515;SDS011;17297;54.022;10.760;2023-04-24T04:25:49;3.70;;;2.08;;
30515;SDS011;17297;54.022;10.760;2023-04-24T04:28:20;2.20;;;2.00;;
30515;SDS011;17297;54.022;10.760;2023-04-24T04:30:47;2.10;;;1.90;;
30515;SDS011;17297;54.022;10.760;2023-04-24T04:33:12;2.15;;;1.95;;
30515;SDS011;17297;54.022;10.760;2023-04-24T04:35:40;2.35;;;1.67;;
30515;SDS011;17297;54.022;10.760;2023-04-24T04:38:06;2.83;;;1.70;;
30515;SDS011;17297;54.022;10.760;2023-04-24T04:43:06;1.98;;;1.73;;
30515;SDS011;17297;54.022;10.760;2023-04-24T04:45:40;1.73;;;1.63;;
30515;SDS011;17297;54.022;10.760;2023-04-24T04:48:27;1.92;;;1.80;;
30515;SDS011;17297;54.022;10.760;2023-04-24T04:50:55;2.10;;;1.55;;
30515;SDS011;17297;54.022;10.760;2023-04-24T04:53:21;2.00;;;1.73;;
30515;SDS011;17297;54.022;10.760;2023-04-24T04:55:47;1.75;;;1.48;;
30515;SDS011;17297;54.022;10.760;2023-04-24T04:58:14;1.80;;;1.50;;
30515;SDS011;17297;54.022;10.760;2023-04-24T05:00:40;1.35;;;1.25;;
30515;SDS011;17297;54.022;10.760;2023-04-24T05:03:26;1.30;;;1.20;;
30515;SDS011;17297;54.022;10.760;2023-04-24T05:06:00;2.15;;;1.50;;
30515;SDS011;17297;54.022;10.760;2023-04-24T05:08:27;1.52;;;1.30;;
30515;SDS011;17297;54.022;10.760;2023-04-24T05:10:52;1.20;;;1.05;;
30515;SDS011;17297;54.022;10.760;2023-04-24T05:13:18;2.25;;;2.05;;
30515;SDS011;17297;54.022;10.760;2023-04-24T05:15:45;1.40;;;1.30;;
30515;SDS011;17297;54.022;10.760;2023-04-24T05:18:11;1.20;;;1.10;;
30515;SDS011;17297;54.022;10.760;2023-04-24T05:20:36;1.30;;;1.20;;
30515;SDS011;17297;54.022;10.760;2023-04-24T05:23:02;1.48;;;1.10;;
30515;SDS011;17297;54.022;10.760;2023-04-24T05:25:29;1.23;;;1.13;;
30515;SDS011;17297;54.022;10.760;2023-04-24T05:28:03;1.17;;;1.00;;
30515;SDS011;17297;54.022;10.760;2023-04-24T05:30:29;1.45;;;1.02;;
30515;SDS011;17297;54.022;10.760;2023-04-24T05:32:54;1.13;;;1.02;;
30515;SDS011;17297;54.022;10.760;2023-04-24T05:35:19;2.22;;;1.33;;
30515;SDS011;17297;54.022;10.760;2023-04-24T05:37:45;2.20;;;1.13;;
30515;SDS011;17297;54.022;10.760;2023-04-24T05:40:11;1.10;;;1.00;;
30515;SDS011;17297;54.022;10.760;2023-04-24T05:42:37;0.95;;;0.95;;
30515;SDS011;17297;54.022;10.760;2023-04-24T05:45:02;1.35;;;1.15;;
30515;SDS011;17297;54.022;10.760;2023-04-24T05:47:28;1.40;;;1.30;;
30515;SDS011;17297;54.022;10.760;2023-04-24T05:49:53;1.95;;;1.00;;
30515;SDS011;17297;54.022;10.760;2023-04-24T05:52:19;1.17;;;1.05;;
30515;SDS011;17297;54.022;10.760;2023-04-24T05:54:44;1.27;;;1.15;;
30515;SDS011;17297;54.022;10.760;2023-04-24T05:57:12;1.00;;;1.00;;
30515;SDS011;17297;54.022;10.760;2023-04-24T05:59:53;2.00;;;0.93;;
30515;SDS011;17297;54.022;10.760;2023-04-24T06:02:20;1.55;;;0.90;;
30515;SDS011;17297;54.022;10.760;2023-04-24T06:04:45;0.90;;;0.90;;
30515;SDS011;17297;54.022;10.760;2023-04-24T06:07:11;2.95;;;0.90;;
30515;SDS011;17297;54.022;10.760;2023-04-24T06:09:37;1.13;;;1.00;;
30515;SDS011;17297;54.022;10.760;2023-04-24T06:12:02;1.00;;;0.90;;
30515;SDS011;17297;54.022;10.760;2023-04-24T06:14:41;0.98;;;0.98;;
30515;SDS011;17297;54.022;10.760;2023-04-24T06:17:29;0.90;;;0.90;;
30515;SDS011;17297;54.022;10.760;2023-04-24T06:19:55;0.68;;;0.68;;
30515;SDS011;17297;54.022;10.760;2023-04-24T06:22:23;0.90;;;0.90;;
30515;SDS011;17297;54.022;10.760;2023-04-24T06:24:48;0.82;;;0.80;;
30515;SDS011;17297;54.022;10.760;2023-04-24T06:27:14;0.50;;;0.50;;
30515;SDS011;17297;54.022;10.760;2023-04-24T06:29:40;0.70;;;0.70;;
30515;SDS011;17297;54.022;10.760;2023-04-24T06:32:05;0.70;;;0.70;;
30515;SDS011;17297;54.022;10.760;2023-04-24T06:34:31;0.60;;;0.60;;
30515;SDS011;17297;54.022;10.760;2023-04-24T06:36:58;0.73;;;0.70;;
30515;SDS011;17297;54.022;10.760;2023-04-24T06:39:24;0.98;;;0.98;;
30515;SDS011;17297;54.022;10.760;2023-04-24T06:41:49;0.85;;;0.65;;
30515;SDS011;17297;54.022;10.760;2023-04-24T06:44:19;0.82;;;0.82;;
30515;SDS011;17297;54.022;10.760;2023-04-24T06:46:44;0.60;;;0.60;;
30515;SDS011;17297;54.022;10.760;2023-04-24T06:49:10;0.50;;;0.50;;
30515;SDS011;17297;54.022;10.760;2023-04-24T06:51:35;0.43;;;0.43;;
30515;SDS011;17297;54.022;10.760;2023-04-24T06:54:01;0.57;;;0.57;;
30515;SDS011;17297;54.022;10.760;2023-04-24T06:56:26;0.85;;;0.60;;
30515;SDS011;17297;54.022;10.760;2023-04-24T06:58:54;0.93;;;0.90;;
30515;SDS011;17297;54.022;10.760;2023-04-24T07:01:19;0.80;;;0.60;;
30515;SDS011;17297;54.022;10.760;2023-04-24T07:03:45;0.50;;;0.50;;
30515;SDS011;17297;54.022;10.760;2023-04-24T07:06:10;0.57;;;0.40;;
30515;SDS011;17297;54.022;10.760;2023-04-24T07:08:39;0.90;;;0.90;;
30515;SDS011;17297;54.022;10.760;2023-04-24T07:11:04;0.40;;;0.40;;
30515;SDS011;17297;54.022;10.760;2023-04-24T07:13:30;0.70;;;0.70;;
30515;SDS011;17297;54.022;10.760;2023-04-24T07:15:55;0.60;;;0.60;;
30515;SDS011;17297;54.022;10.760;2023-04-24T07:18:21;0.73;;;0.73;;
30515;SDS011;17297;54.022;10.760;2023-04-24T07:20:47;0.50;;;0.50;;
30515;SDS011;17297;54.022;10.760;2023-04-24T07:23:12;0.77;;;0.50;;
30515;SDS011;17297;54.022;10.760;2023-04-24T07:25:38;0.75;;;0.57;;
30515;SDS011;17297;54.022;10.760;2023-04-24T07:28:04;0.80;;;0.80;;
30515;SDS011;17297;54.022;10.760;2023-04-24T07:30:30;0.95;;;0.60;;
30515;SDS011;17297;54.022;10.760;2023-04-24T07:32:57;0.80;;;0.80;;
30515;SDS011;17297;54.022;10.760;2023-04-24T07:35:23;0.63;;;0.57;;
30515;SDS011;17297;54.022;10.760;2023-04-24T07:37:50;0.60;;;0.60;;
30515;SDS011;17297;54.022;10.760;2023-04-24T07:40:15;10.63;;;1.35;;
30515;SDS011;17297;54.022;10.760;2023-04-24T07:42:41;0.88;;;0.85;;
30515;SDS011;17297;54.022;10.760;2023-04-24T07:45:06;0.70;;;0.70;;
30515;SDS011;17297;54.022;10.760;2023-04-24T07:47:32;0.95;;;0.80;;
30515;SDS011;17297;54.022;10.760;2023-04-24T07:49:58;0.88;;;0.88;;
30515;SDS011;17297;54.022;10.760;2023-04-24T07:52:24;0.88;;;0.88;;
30515;SDS011;17297;54.022;10.760;2023-04-24T07:54:49;0.80;;;0.80;;
30515;SDS011;17297;54.022;10.760;2023-04-24T07:57:15;0.68;;;0.68;;
30515;SDS011;17297;54.022;10.760;2023-04-24T07:59:41;0.73;;;0.73;;
30515;SDS011;17297;54.022;10.760;2023-04-24T08:02:06;0.98;;;0.90;;
30515;SDS011;17297;54.022;10.760;2023-04-24T08:04:32;0.88;;;0.88;;
30515;SDS011;17297;54.022;10.760;2023-04-24T08:06:57;0.60;;;0.60;;
30515;SDS011;17297;54.022;10.760;2023-04-24T08:09:23;0.88;;;0.88;;
30515;SDS011;17297;54.022;10.760;2023-04-24T08:11:48;0.98;;;0.95;;
30515;SDS011;17297;54.022;10.760;2023-04-24T08:14:14;0.70;;;0.70;;
30515;SDS011;17297;54.022;10.760;2023-04-24T08:16:40;1.17;;;1.08;;
30515;SDS011;17297;54.022;10.760;2023-04-24T08:19:05;1.60;;;0.80;;
30515;SDS011;17297;54.022;10.760;2023-04-24T08:21:31;0.77;;;0.77;;
30515;SDS011;17297;54.022;10.760;2023-04-24T08:23:56;0.63;;;0.60;;
30515;SDS011;17297;54.022;10.760;2023-04-24T08:26:22;0.90;;;0.90;;
30515;SDS011;17297;54.022;10.760;2023-04-24T08:28:47;0.90;;;0.90;;
30515;SDS011;17297;54.022;10.760;2023-04-24T08:31:12;0.70;;;0.70;;
30515;SDS011;17297;54.022;10.760;2023-04-24T08:33:38;0.80;;;0.80;;
30515;SDS011;17297;54.022;10.760;2023-04-24T08:36:03;0.80;;;0.80;;
30515;SDS011;17297;54.022;10.760;2023-04-24T08:38:30;0.80;;;0.80;;
30515;SDS011;17297;54.022;10.760;2023-04-24T08:40:56;0.70;;;0.70;;
30515;SDS011;17297;54.022;10.760;2023-04-24T08:43:22;0.70;;;0.70;;
30515;SDS011;17297;54.022;10.760;2023-04-24T08:45:49;0.70;;;0.70;;
30515;SDS011;17297;54.022;10.760;2023-04-24T08:48:15;0.80;;;0.80;;
30515;SDS011;17297;54.022;10.760;2023-04-24T08:50:41;0.80;;;0.80;;
30515;SDS011;17297;54.022;10.760;2023-04-24T08:53:08;1.02;;;0.90;;
30515;SDS011;17297;54.022;10.760;2023-04-24T08:55:34;0.88;;;0.88;;
30515;SDS011;17297;54.022;10.760;2023-04-24T08:58:00;0.70;;;0.70;;
30515;SDS011;17297;54.022;10.760;2023-04-24T09:00:27;0.80;;;0.80;;
30515;SDS011;17297;54.022;10.760;2023-04-24T09:02:53;0.77;;;0.77;;
30515;SDS011;17297;54.022;10.760;2023-04-24T09:05:20;0.80;;;0.80;;
30515;SDS011;17297;54.022;10.760;2023-04-24T09:07:49;0.70;;;0.70;;
30515;SDS011;17297;54.022;10.760;2023-04-24T09:10:21;0.75;;;0.75;;
30515;SDS011;17297;54.022;10.760;2023-04-24T09:12:49;2.08;;;0.95;;
30515;SDS011;17297;54.022;10.760;2023-04-24T09:15:15;0.90;;;0.90;;
30515;SDS011;17297;54.022;10.760;2023-04-24T09:17:41;0.90;;;0.90;;
30515;SDS011;17297;54.022;10.760;2023-04-24T09:20:06;0.88;;;0.88;;
30515;SDS011;17297;54.022;10.760;2023-04-24T09:22:32;0.80;;;0.80;;
30515;SDS011;17297;54.022;10.760;2023-04-24T09:25:02;0.75;;;0.75;;
30515;SDS011;17297;54.022;10.760;2023-04-24T09:27:32;0.90;;;0.90;;
30515;SDS011;17297;54.022;10.760;2023-04-24T09:29:58;1.35;;;1.25;;
30515;SDS011;17297;54.022;10.760;2023-04-24T09:32:24;0.85;;;0.85;;
30515;SDS011;17297;54.022;10.760;2023-04-24T09:35:04;0.95;;;0.95;;
30515;SDS011;17297;54.022;10.760;2023-04-24T09:37:34;1.05;;;1.02;;
30515;SDS011;17297;54.022;10.760;2023-04-24T09:42:55;1.13;;;1.02;;
30515;SDS011;17297;54.022;10.760;2023-04-24T09:45:35;1.10;;;0.90;;
30515;SDS011;17297;54.022;10.760;2023-04-24T09:48:02;1.27;;;1.17;;
30515;SDS011;17297;54.022;10.760;2023-04-24T09:50:29;1.00;;;0.88;;
30515;SDS011;17297;54.022;10.760;2023-04-24T09:53:01;0.98;;;0.98;;
30515;SDS011;17297;54.022;10.760;2023-04-24T09:55:28;1.60;;;1.50;;
30515;SDS011;17297;54.022;10.760;2023-04-24T10:05:27;1.30;;;1.20;;
30515;SDS011;17297;54.022;10.760;2023-04-24T10:07:59;1.20;;;1.10;;
30515;SDS011;17297;54.022;10.760;2023-04-24T10:10:26;1.40;;;1.30;;
30515;SDS011;17297;54.022;10.760;2023-04-24T10:12:51;1.10;;;1.10;;
30515;SDS011;17297;54.022;10.760;2023-04-24T10:15:17;1.35;;;1.15;;
30515;SDS011;17297;54.022;10.760;2023-04-24T10:17:46;1.30;;;1.20;;
30515;SDS011;17297;54.022;10.760;2023-04-24T10:20:17;1.38;;;1.27;;
30515;SDS011;17297;54.022;10.760;2023-04-24T10:22:46;1.48;;;1.38;;
30515;SDS011;17297;54.022;10.760;2023-04-24T10:25:15;1.67;;;1.58;;
30515;SDS011;17297;54.022;10.760;2023-04-24T10:27:41;2.10;;;1.92;;
30515;SDS011;17297;54.022;10.760;2023-04-24T10:30:08;1.67;;;1.58;;
30515;SDS011;17297;54.022;10.760;2023-04-24T10:32:36;2.20;;;2.00;;
30515;SDS011;17297;54.022;10.760;2023-04-24T10:35:01;1.40;;;1.30;;
30515;SDS011;17297;54.022;10.760;2023-04-24T10:37:27;1.77;;;1.67;;
30515;SDS011;17297;54.022;10.760;2023-04-24T10:39:53;2.80;;;1.45;;
30515;SDS011;17297;54.022;10.760;2023-04-24T10:42:19;2.35;;;1.90;;
30515;SDS011;17297;54.022;10.760;2023-04-24T10:44:47;1.50;;;1.40;;
30515;SDS011;17297;54.022;10.760;2023-04-24T10:47:13;1.98;;;1.48;;
30515;SDS011;17297;54.022;10.760;2023-04-24T10:49:41;1.42;;;1.33;;
30515;SDS011;17297;54.022;10.760;2023-04-24T10:52:08;1.45;;;1.35;;
30515;SDS011;17297;54.022;10.760;2023-04-24T10:54:35;1.27;;;1.20;;
30515;SDS011;17297;54.022;10.760;2023-04-24T10:59:49;1.95;;;1.13;;
30515;SDS011;17297;54.022;10.760;2023-04-24T11:02:17;1.55;;;1.45;;
30515;SDS011;17297;54.022;10.760;2023-04-24T11:04:43;1.50;;;1.40;;
30515;SDS011;17297;54.022;10.760;2023-04-24T11:07:10;2.00;;;1.90;;
30515;SDS011;17297;54.022;10.760;2023-04-24T11:09:36;1.45;;;1.35;;
30515;SDS011;17297;54.022;10.760;2023-04-24T11:12:11;1.63;;;1.52;;
30515;SDS011;17297;54.022;10.760;2023-04-24T11:17:29;2.30;;;2.10;;
30515;SDS011;17297;54.022;10.760;2023-04-24T11:20:11;2.58;;;1.90;;
30515;SDS011;17297;54.022;10.760;2023-04-24T11:22:41;1.45;;;1.35;;
30515;SDS011;17297;54.022;10.760;2023-04-24T11:25:06;1.60;;;1.50;;
30515;SDS011;17297;54.022;10.760;2023-04-24T11:27:40;1.58;;;1.48;;
30515;SDS011;17297;54.022;10.760;2023-04-24T11:30:07;1.40;;;1.30;;
30515;SDS011;17297;54.022;10.760;2023-04-24T11:35:06;2.15;;;1.38;;
30515;SDS011;17297;54.022;10.760;2023-04-24T11:37:34;1.70;;;1.60;;
30515;SDS011;17297;54.022;10.760;2023-04-24T11:40:01;2.17;;;2.08;;
30515;SDS011;17297;54.022;10.760;2023-04-24T11:42:28;2.17;;;1.98;;
30515;SDS011;17297;54.022;10.760;2023-04-24T11:44:58;2.20;;;2.00;;
30515;SDS011;17297;54.022;10.760;2023-04-24T11:47:28;1.80;;;1.65;;
30515;SDS011;17297;54.022;10.760;2023-04-24T11:49:55;1.88;;;1.65;;
30515;SDS011;17297;54.022;10.760;2023-04-24T11:52:20;1.83;;;1.73;;
30515;SDS011;17297;54.022;10.760;2023-04-24T11:54:49;2.28;;;2.08;;
30515;SDS011;17297;54.022;10.760;2023-04-24T11:57:15;2.33;;;2.13;;
30515;SDS011;17297;54.022;10.760;2023-04-24T11:59:41;2.25;;;2.05;;
30515;SDS011;17297;54.022;10.760;2023-04-24T12:02:06;2.15;;;1.95;;
30515;SDS011;17297;54.022;10.760;2023-04-24T12:04:38;2.45;;;2.25;;
30515;SDS011;17297;54.022;10.760;2023-04-24T12:07:05;2.28;;;2.08;;
30515;SDS011;17297;54.022;10.760;2023-04-24T12:09:43;2.72;;;2.30;;
30515;SDS011;17297;54.022;10.760;2023-04-24T12:12:11;2.05;;;1.90;;
30515;SDS011;17297;54.022;10.760;2023-04-24T12:14:44;4.90;;;2.50;;
30515;SDS011;17297;54.022;10.760;2023-04-24T12:17:27;2.20;;;2.00;;
30515;SDS011;17297;54.022;10.760;2023-04-24T12:19:56;4.18;;;3.00;;
30515;SDS011;17297;54.022;10.760;2023-04-24T12:22:26;2.72;;;2.50;;
30515;SDS011;17297;54.022;10.760;2023-04-24T12:24:58;2.83;;;2.58;;
30515;SDS011;17297;54.022;10.760;2023-04-24T12:27:31;3.13;;;2.75;;
30515;SDS011;17297;54.022;10.760;2023-04-24T12:30:02;2.88;;;2.65;;
30515;SDS011;17297;54.022;10.760;2023-04-24T12:32:29;3.00;;;2.70;;
30515;SDS011;17297;54.022;10.760;2023-04-24T12:34:55;3.50;;;3.20;;
30515;SDS011;17297;54.022;10.760;2023-04-24T12:37:22;4.43;;;3.03;;
30515;SDS011;17297;54.022;10.760;2023-04-24T12:40:01;3.33;;;3.03;;
30515;SDS011;17297;54.022;10.760;2023-04-24T12:42:31;3.80;;;3.15;;
30515;SDS011;17297;54.022;10.760;2023-04-24T12:45:04;3.30;;;3.00;;
30515;SDS011;17297;54.022;10.760;2023-04-24T12:47:31;3.33;;;3.03;;
30515;SDS011;17297;54.022;10.760;2023-04-24T12:49:58;3.58;;;3.25;;
30515;SDS011;17297;54.022;10.760;2023-04-24T12:52:23;3.13;;;2.78;;
30515;SDS011;17297;54.022;10.760;2023-04-24T12:54:52;3.35;;;2.70;;
30515;SDS011;17297;54.022;10.760;2023-04-24T12:57:18;3.97;;;3.58;;
30515;SDS011;17297;54.022;10.760;2023-04-24T12:59:44;3.53;;;3.20;;
30515;SDS011;17297;54.022;10.760;2023-04-24T13:02:10;4.30;;;3.90;;
30515;SDS011;17297;54.022;10.760;2023-04-24T13:04:36;4.00;;;2.65;;
30515;SDS011;17297;54.022;10.760;2023-04-24T13:07:01;3.50;;;3.20;;
30515;SDS011;17297;54.022;10.760;2023-04-24T13:09:27;3.88;;;3.50;;
30515;SDS011;17297;54.022;10.760;2023-04-24T13:11:52;3.03;;;2.78;;
30515;SDS011;17297;54.022;10.760;2023-04-24T13:14:17;4.68;;;3.35;;
30515;SDS011;17297;54.022;10.760;2023-04-24T13:16:43;3.83;;;3.42;;
30515;SDS011;17297;54.022;10.760;2023-04-24T13:19:08;3.20;;;2.90;;
30515;SDS011;17297;54.022;10.760;2023-04-24T13:21:33;4.20;;;3.05;;
30515;SDS011;17297;54.022;10.760;2023-04-24T13:23:59;3.42;;;3.13;;
30515;SDS011;17297;54.022;10.760;2023-04-24T13:26:24;3.70;;;3.15;;
30515;SDS011;17297;54.022;10.760;2023-04-24T13:28:50;2.85;;;2.65;;
30515;SDS011;17297;54.022;10.760;2023-04-24T13:31:15;3.88;;;3.38;;
30515;SDS011;17297;54.022;10.760;2023-04-24T13:33:41;3.65;;;3.35;;
30515;SDS011;17297;54.022;10.760;2023-04-24T13:36:06;3.33;;;3.03;;
30515;SDS011;17297;54.022;10.760;2023-04-24T13:38:31;3.70;;;3.03;;
30515;SDS011;17297;54.022;10.760;2023-04-24T13:40:57;3.35;;;3.05;;
30515;SDS011;17297;54.022;10.760;2023-04-24T13:43:22;3.42;;;3.13;;
30515;SDS011;17297;54.022;10.760;2023-04-24T13:45:48;4.18;;;2.85;;
30515;SDS011;17297;54.022;10.760;2023-04-24T13:48:13;3.35;;;3.00;;
30515;SDS011;17297;54.022;10.760;2023-04-24T13:50:40;3.60;;;3.20;;
30515;SDS011;17297;54.022;10.760;2023-04-24T13:53:06;3.55;;;3.25;;
30515;SDS011;17297;54.022;10.760;2023-04-24T13:55:32;2.78;;;2.58;;
30515;SDS011;17297;54.022;10.760;2023-04-24T13:57:57;2.80;;;2.60;;
30515;SDS011;17297;54.022;10.760;2023-04-24T14:00:22;3.60;;;3.25;;
30515;SDS011;17297;54.022;10.760;2023-04-24T14:02:48;3.97;;;2.70;;
30515;SDS011;17297;54.022;10.760;2023-04-24T14:05:13;2.72;;;2.53;;
30515;SDS011;17297;54.022;10.760;2023-04-24T14:07:40;3.28;;;2.97;;
30515;SDS011;17297;54.022;10.760;2023-04-24T14:10:06;2.70;;;2.50;;
30515;SDS011;17297;54.022;10.760;2023-04-24T14:12:32;2.33;;;2.13;;
30515;SDS011;17297;54.022;10.760;2023-04-24T14:14:57;2.95;;;2.30;;
30515;SDS011;17297;54.022;10.760;2023-04-24T14:17:23;2.42;;;2.08;;
30515;SDS011;17297;54.022;10.760;2023-04-24T14:19:48;2.95;;;2.65;;
30515;SDS011;17297;54.022;10.760;2023-04-24T14:22:13;2.47;;;2.22;;
30515;SDS011;17297;54.022;10.760;2023-04-24T14:24:39;2.55;;;2.30;;
30515;SDS011;17297;54.022;10.760;2023-04-24T14:27:04;2.97;;;2.65;;
30515;SDS011;17297;54.022;10.760;2023-04-24T14:29:29;3.40;;;2.95;;
30515;SDS011;17297;54.022;10.760;2023-04-24T14:31:55;2.92;;;2.72;;
30515;SDS011;17297;54.022;10.760;2023-04-24T14:34:20;2.50;;;2.30;;
30515;SDS011;17297;54.022;10.760;2023-04-24T14:36:46;6.75;;;4.68;;
30515;SDS011;17297;54.022;10.760;2023-04-24T14:39:11;3.55;;;2.95;;
30515;SDS011;17297;54.022;10.760;2023-04-24T14:41:37;2.72;;;2.53;;
30515;SDS011;17297;54.022;10.760;2023-04-24T14:44:04;5.43;;;2.50;;
30515;SDS011;17297;54.022;10.760;2023-04-24T14:46:30;4.18;;;2.65;;
30515;SDS011;17297;54.022;10.760;2023-04-24T14:48:56;3.35;;;2.58;;
30515;SDS011;17297;54.022;10.760;2023-04-24T14:51:21;3.13;;;2.72;;
30515;SDS011;17297;54.022;10.760;2023-04-24T14:53:47;2.72;;;2.45;;